Lewistown Municipal Airport
KLWT : now visible

Airfield :











YOU CAN JOIN US ON...

 
LOGIN :

Register | Disclaimer

   EN    FR    IT 

 









Legend :    VFR   Marginal VFR   IFR   Intensive IFR   Very Intensive IFR
Visi :
Ceiling :
>= 8 km
>= 3000ft
5 to 8 km
1000 to 3000 ft
1500m to 5 km
500 to 1000 ft
800 to 1500m
200 to 500 ft
< 800m
< 200 ft
Symbols :   Thunderstorms  Fog  Heavy snow  Heavy precipitations  Wind > 20 kt






- Airport Elevation : 4170 ft
- IATA code : LWT


KLWT - Lewistown Municipal

CURRENT METAR :
  • 200754Z AUTO 32008KT 7SM -RA FEW014 OVC023 02/01 A2985 RMK AO2 RAB15 SLP131 P0003 I1000 T00220006

EXPIRED METARs :
  • 200738Z AUTO 33005KT 10SM -RA BKN020 BKN026 OVC039 02/01 A2984 RMK AO2 RAB15 P0001 T00220011
  • 200654Z AUTO 21008KT 10SM SCT060 BKN090 02/00 A2981 RMK AO2 SLP119 T00170000 400391067
  • 200554Z AUTO 33003KT 10SM BKN080 OVC110 03/01 A2982 RMK AO2 SLP120 60000 T00280006 10039 20011 52007

TAF KLWT
Valid from the 20 at 08:00 until the 21 at 06:00 UTC


200742Z 2008/2106 34008KT P6SM VCSH SCT025 BKN050
TEMPO 2008/2011 6SM -SHRASN BR BKN020
FM201200 28005KT P6SM VCSH SCT030 BKN050
FM201500 VRB04KT P6SM SCT060 BKN120
KZLC FIR / North America



MET'MAP, your aeronautical weather chart ! - Copyright ORBIFLY December 2007 - Disclaimer

ORBIFLY MET'MAP TEAM :

Programming & Development : Alexandra Zaïnal
Concept & original design : Baudouin d'Aumeries
Assistance for programming : Marc-Olivier Méhu
Technical & hardware support : Manuel Goepfert

Contact : metmap@orbifly.com




SOURCES & CREDITS :

   NOAA       Earth
Advisory